Time;durP1;ratioP1;P1;durP2;ratioP2;P2;SDS_P1;SDS_P2;PMS_P1;PMS_P2;Temp;Humidity;BMP_temperature;BMP_pressure;BME280_temperature;BME280_humidity;BME280_pressure;Samples;Min_cycle;Max_cycle;Signal;HPM_P1;HPM_P2
2021/01/31 00:02:17;;;;;;;5.30;4.40;;;3.60;99.90;;;;;;5057676;28;20171;-44
2021/01/31 00:04:49;;;;;;;5.60;4.43;;;3.50;99.90;;;;;;5055795;28;20171;-47
2021/01/31 00:07:16;;;;;;;4.93;3.90;;;3.40;99.90;;;;;;5057383;28;20194;-47
2021/01/31 00:09:42;;;;;;;4.97;4.20;;;3.40;99.90;;;;;;5057690;28;20333;-48
2021/01/31 00:12:09;;;;;;;5.57;4.30;;;3.30;99.90;;;;;;5068798;28;20885;-49
2021/01/31 00:14:34;;;;;;;7.30;4.63;;;3.40;99.90;;;;;;5077234;28;20208;-43
2021/01/31 00:17:01;;;;;;;4.77;4.27;;;3.50;99.90;;;;;;5074286;28;20249;-48
2021/01/31 00:19:26;;;;;;;4.67;4.17;;;3.50;99.90;;;;;;5075738;28;20269;-45
2021/01/31 00:22:01;;;;;;;4.60;4.07;;;3.50;99.90;;;;;;5076696;28;20205;-42
2021/01/31 00:24:27;;;;;;;5.07;4.30;;;3.50;99.90;;;;;;5057401;28;20191;-45
2021/01/31 00:26:53;;;;;;;5.30;4.17;;;3.50;99.90;;;;;;5055551;28;20662;-48
2021/01/31 00:29:19;;;;;;;4.70;4.07;;;3.50;99.90;;;;;;5057545;28;20202;-45
2021/01/31 00:31:49;;;;;;;5.23;4.43;;;3.40;99.90;;;;;;5055326;28;20187;-45
2021/01/31 00:34:16;;;;;;;5.40;4.50;;;3.40;99.90;;;;;;5057039;28;20256;-47
2021/01/31 00:36:43;;;;;;;5.80;4.60;;;3.40;99.90;;;;;;5054631;28;20183;-44
2021/01/31 00:39:09;;;;;;;6.40;5.00;;;3.40;99.90;;;;;;5058437;28;20289;-46
2021/01/31 00:41:36;;;;;;;6.40;5.00;;;3.50;99.90;;;;;;5071207;28;20202;-45
2021/01/31 00:44:03;;;;;;;5.63;5.03;;;3.40;99.90;;;;;;5067475;28;20178;-45
2021/01/31 00:46:33;;;;;;;5.47;4.80;;;3.40;99.90;;;;;;5056798;28;20642;-47
2021/01/31 00:48:59;;;;;;;6.27;5.10;;;3.30;99.90;;;;;;5054893;28;20425;-51
2021/01/31 00:51:24;;;;;;;5.90;5.13;;;3.30;99.90;;;;;;5056423;28;20588;-43
2021/01/31 00:53:50;;;;;;;6.27;4.87;;;3.30;99.90;;;;;;5056387;28;20186;-46
2021/01/31 00:56:15;;;;;;;7.23;5.77;;;3.30;99.90;;;;;;5062959;28;20202;-44
2021/01/31 00:58:44;;;;;;;8.87;5.60;;;3.30;99.90;;;;;;5075524;28;20194;-46
2021/01/31 01:01:09;;;;;;;7.40;5.70;;;3.20;99.90;;;;;;5075856;28;20182;-46
2021/01/31 01:03:35;;;;;;;6.17;5.33;;;3.20;99.90;;;;;;5074804;28;20224;-44
2021/01/31 01:06:00;;;;;;;6.50;5.80;;;3.20;99.90;;;;;;5074177;28;20186;-45
2021/01/31 01:08:26;;;;;;;6.30;5.43;;;3.20;99.90;;;;;;5074016;28;20678;-46
2021/01/31 01:10:51;;;;;;;7.33;6.00;;;3.20;99.90;;;;;;5077203;28;20183;-44
2021/01/31 01:13:17;;;;;;;6.77;5.67;;;3.20;99.90;;;;;;5073799;28;20179;-47
2021/01/31 01:15:42;;;;;;;7.73;6.17;;;3.20;99.90;;;;;;5055796;28;20658;-42
2021/01/31 01:18:08;;;;;;;8.60;6.10;;;3.20;99.90;;;;;;5054125;28;20183;-50
2021/01/31 01:20:33;;;;;;;6.70;5.70;;;3.30;99.90;;;;;;5054624;28;20632;-44
2021/01/31 01:22:59;;;;;;;8.67;5.93;;;3.20;99.90;;;;;;5056376;28;20198;-48
2021/01/31 01:25:25;;;;;;;7.57;6.10;;;3.30;99.90;;;;;;5056024;28;20207;-47
2021/01/31 01:27:52;;;;;;;8.07;6.13;;;3.30;99.90;;;;;;5057555;28;20195;-47
2021/01/31 01:30:21;;;;;;;8.33;6.23;;;3.30;99.90;;;;;;5055592;28;20210;-50
2021/01/31 01:32:47;;;;;;;7.50;6.50;;;3.30;99.90;;;;;;5058947;28;20187;-43
2021/01/31 01:35:12;;;;;;;6.83;5.63;;;3.30;99.90;;;;;;5056051;28;20261;-44
2021/01/31 01:37:38;;;;;;;6.73;5.93;;;3.30;99.90;;;;;;5054098;28;20221;-45
2021/01/31 01:40:07;;;;;;;7.43;5.80;;;3.30;99.90;;;;;;5056212;28;20200;-49
2021/01/31 01:42:33;;;;;;;8.53;6.30;;;3.30;99.90;;;;;;5053890;28;20178;-52
2021/01/31 01:44:58;;;;;;;7.27;6.00;;;3.30;99.90;;;;;;5053720;28;20673;-45
2021/01/31 01:47:27;;;;;;;7.47;6.20;;;3.20;99.90;;;;;;5058539;28;20182;-46
2021/01/31 01:49:56;;;;;;;8.10;6.10;;;3.10;99.90;;;;;;5074229;28;20202;-45
2021/01/31 01:52:36;;;;;;;6.97;5.83;;;3.00;99.90;;;;;;5075223;28;20535;-48
2021/01/31 01:55:06;;;;;;;8.07;6.70;;;2.90;99.90;;;;;;5077051;28;20467;-44
2021/01/31 01:57:44;;;;;;;7.63;6.03;;;2.90;99.90;;;;;;5074617;28;20194;-44
2021/01/31 02:00:11;;;;;;;7.20;6.10;;;2.90;99.90;;;;;;5075441;28;20460;-48
2021/01/31 02:02:55;;;;;;;7.00;5.47;;;2.90;99.90;;;;;;5073426;28;20257;-49
2021/01/31 02:05:21;;;;;;;7.17;5.97;;;2.90;99.90;;;;;;5075907;28;20178;-46
2021/01/31 02:07:47;;;;;;;8.00;6.00;;;2.80;99.90;;;;;;5069660;28;20528;-48
2021/01/31 02:10:15;;;;;;;7.27;5.70;;;2.70;99.90;;;;;;5057031;28;20267;-45
2021/01/31 02:12:41;;;;;;;7.40;5.87;;;2.60;99.90;;;;;;5055092;28;20228;-43
2021/01/31 02:15:08;;;;;;;7.30;5.87;;;2.50;99.90;;;;;;5053916;28;20462;-48
2021/01/31 02:18:05;;;;;;;7.17;5.90;;;2.40;99.90;;;;;;5055020;28;20190;-44
2021/01/31 02:21:01;;;;;;;7.93;6.53;;;2.30;99.90;;;;;;5054906;28;20541;-48
2021/01/31 02:24:06;;;;;;;8.07;6.10;;;2.20;99.90;;;;;;5054343;28;20424;-43
2021/01/31 02:26:50;;;;;;;8.37;6.40;;;2.20;99.90;;;;;;5053459;28;20747;-46
2021/01/31 02:29:30;;;;;;;7.23;5.80;;;2.10;99.90;;;;;;5054209;28;20233;-45
2021/01/31 02:32:33;;;;;;;7.93;6.30;;;2.10;99.90;;;;;;5062025;28;20881;-46
2021/01/31 02:35:07;;;;;;;7.87;6.83;;;2.10;99.90;;;;;;5053295;28;20457;-44
2021/01/31 02:37:59;;;;;;;8.13;6.37;;;2.10;99.90;;;;;;5054000;28;20424;-42
2021/01/31 02:40:31;;;;;;;8.27;6.70;;;2.00;99.90;;;;;;5059453;28;20445;-47
2021/01/31 02:43:10;;;;;;;8.17;6.60;;;2.00;99.90;;;;;;5054649;28;20425;-48
2021/01/31 02:45:44;;;;;;;8.53;6.67;;;1.90;99.90;;;;;;5074358;28;20722;-47
2021/01/31 02:48:16;;;;;;;7.77;6.30;;;1.90;99.90;;;;;;5064672;28;20463;-51
2021/01/31 02:50:56;;;;;;;10.57;7.07;;;2.00;99.90;;;;;;5056514;28;20426;-46
2021/01/31 02:53:28;;;;;;;8.93;7.23;;;2.00;99.90;;;;;;5058422;28;20408;-44
2021/01/31 02:56:04;;;;;;;9.13;6.87;;;2.00;99.90;;;;;;5071767;28;20472;-44
2021/01/31 02:58:36;;;;;;;8.97;7.00;;;1.90;99.90;;;;;;5062622;28;20217;-48
2021/01/31 03:01:09;;;;;;;8.63;7.00;;;1.90;99.90;;;;;;5053510;28;20508;-45
2021/01/31 03:03:40;;;;;;;8.60;6.50;;;1.90;99.90;;;;;;5061126;28;20409;-45
2021/01/31 03:06:14;;;;;;;9.27;7.20;;;1.80;99.90;;;;;;5073577;28;20404;-51
2021/01/31 03:08:45;;;;;;;9.20;7.10;;;1.80;99.90;;;;;;5059008;28;20948;-50
2021/01/31 03:11:19;;;;;;;9.63;7.43;;;1.70;99.90;;;;;;5058597;28;20437;-44
2021/01/31 03:14:08;;;;;;;8.30;6.93;;;1.70;99.90;;;;;;5076197;28;20426;-44
2021/01/31 03:16:43;;;;;;;9.00;7.30;;;1.70;99.90;;;;;;5076171;28;20810;-46
2021/01/31 03:19:13;;;;;;;10.83;8.17;;;1.70;99.90;;;;;;5059261;28;20534;-48
2021/01/31 03:21:42;;;;;;;10.37;8.07;;;1.70;99.90;;;;;;5059457;28;20406;-47
2021/01/31 03:24:52;;;;;;;9.83;7.57;;;1.70;99.90;;;;;;5056555;28;20405;-45
2021/01/31 03:27:34;;;;;;;8.70;7.07;;;1.70;99.90;;;;;;5015235;28;20450;-45
2021/01/31 03:29:59;;;;;;;10.40;7.63;;;1.70;99.90;;;;;;5024822;28;20458;-51
2021/01/31 03:32:30;;;;;;;10.93;8.40;;;1.70;99.90;;;;;;5034609;28;20492;-43
2021/01/31 03:35:02;;;;;;;9.63;7.70;;;1.70;99.90;;;;;;5033677;28;20567;-46
2021/01/31 03:37:37;;;;;;;10.70;8.20;;;1.70;99.90;;;;;;5034166;28;20429;-48
2021/01/31 03:40:23;;;;;;;10.63;8.53;;;1.70;99.90;;;;;;5032265;28;20465;-47
2021/01/31 03:42:49;;;;;;;9.83;7.80;;;1.70;99.90;;;;;;5036150;28;20429;-47
2021/01/31 03:45:20;;;;;;;11.13;8.20;;;1.70;99.90;;;;;;5033279;28;20454;-44
2021/01/31 03:48:05;;;;;;;9.67;8.07;;;1.70;99.90;;;;;;5034419;28;20417;-44
2021/01/31 03:50:31;;;;;;;9.87;8.17;;;1.70;99.90;;;;;;5031181;28;20446;-47
2021/01/31 03:52:57;;;;;;;10.17;7.80;;;1.80;99.90;;;;;;5035179;28;20422;-47
2021/01/31 03:55:23;;;;;;;11.80;8.43;;;1.80;99.90;;;;;;5034468;28;20970;-44
2021/01/31 03:57:56;;;;;;;11.80;9.13;;;1.80;99.90;;;;;;5035663;28;20426;-47
2021/01/31 04:00:25;;;;;;;10.53;8.23;;;1.80;99.90;;;;;;5015349;28;20220;-44
2021/01/31 04:02:59;;;;;;;10.77;8.63;;;1.80;99.90;;;;;;5039821;28;20449;-44
2021/01/31 04:05:28;;;;;;;12.20;9.40;;;1.80;99.90;;;;;;5075711;28;20507;-52
2021/01/31 04:07:56;;;;;;;10.90;8.77;;;1.80;99.90;;;;;;5072422;28;20414;-45
2021/01/31 04:10:22;;;;;;;11.73;8.97;;;1.80;99.90;;;;;;5055843;28;20434;-45
2021/01/31 04:12:52;;;;;;;11.60;8.87;;;1.80;99.90;;;;;;5057479;28;20420;-47
2021/01/31 04:15:50;;;;;;;12.27;9.37;;;1.80;99.90;;;;;;5055667;28;20353;-47
2021/01/31 04:18:16;;;;;;;11.07;8.80;;;1.80;99.90;;;;;;5075433;28;20424;-47
2021/01/31 04:20:42;;;;;;;13.13;9.27;;;1.80;99.90;;;;;;5076325;28;20408;-43
2021/01/31 04:23:08;;;;;;;12.00;9.10;;;1.80;99.90;;;;;;5075929;28;20409;-47
2021/01/31 04:25:34;;;;;;;11.27;8.57;;;1.80;99.90;;;;;;5074287;28;20182;-45
2021/01/31 04:28:15;;;;;;;13.70;9.30;;;1.90;99.90;;;;;;5076364;28;20185;-47
2021/01/31 04:30:42;;;;;;;11.87;9.27;;;1.80;99.90;;;;;;5075888;28;20405;-46
2021/01/31 04:33:09;;;;;;;11.07;9.10;;;1.80;99.90;;;;;;5075201;28;20400;-47
2021/01/31 04:35:34;;;;;;;12.47;9.50;;;1.80;99.90;;;;;;5074913;28;20448;-43
2021/01/31 04:38:00;;;;;;;12.47;9.67;;;1.90;99.90;;;;;;5074295;28;20435;-44
2021/01/31 04:40:26;;;;;;;11.53;8.97;;;1.80;99.90;;;;;;5076002;28;20210;-45
2021/01/31 04:42:52;;;;;;;10.90;8.83;;;1.90;99.90;;;;;;5074706;28;20458;-50
2021/01/31 04:45:18;;;;;;;11.20;9.00;;;1.90;99.90;;;;;;5075226;28;20420;-47
2021/01/31 04:48:04;;;;;;;11.47;9.33;;;1.90;99.90;;;;;;5075748;28;20220;-43
2021/01/31 04:51:02;;;;;;;13.10;9.33;;;2.00;99.90;;;;;;5044223;28;20436;-47
2021/01/31 04:53:55;;;;;;;10.50;8.37;;;2.00;99.90;;;;;;5074948;28;20524;-43
2021/01/31 04:56:56;;;;;;;11.67;8.70;;;2.10;99.90;;;;;;5075085;28;20483;-46
2021/01/31 04:59:35;;;;;;;13.17;9.50;;;2.10;99.90;;;;;;5074961;28;20433;-46
2021/01/31 05:02:43;;;;;;;12.83;9.33;;;2.20;99.90;;;;;;5075027;28;20413;-44
2021/01/31 05:05:29;;;;;;;12.53;9.13;;;2.30;99.90;;;;;;5013210;28;20513;-46
2021/01/31 05:08:00;;;;;;;11.33;9.27;;;2.40;99.90;;;;;;5012781;28;20427;-47
2021/01/31 05:10:26;;;;;;;12.37;9.83;;;2.40;99.90;;;;;;5013309;28;20489;-46
2021/01/31 05:12:58;;;;;;;11.43;8.93;;;2.40;99.90;;;;;;5013764;28;20546;-43
2021/01/31 05:15:49;;;;;;;11.33;9.10;;;2.40;99.90;;;;;;5012688;28;20502;-49
2021/01/31 05:18:17;;;;;;;12.60;9.23;;;2.50;99.90;;;;;;4990337;28;20452;-53
2021/01/31 05:20:47;;;;;;;10.50;8.83;;;2.50;99.90;;;;;;5013346;28;20503;-45
2021/01/31 05:23:13;;;;;;;11.03;8.40;;;2.50;99.90;;;;;;5010460;28;20439;-48
2021/01/31 05:25:38;;;;;;;11.77;8.87;;;2.40;99.90;;;;;;5012150;28;20470;-44
2021/01/31 05:28:06;;;;;;;12.27;8.73;;;2.40;99.90;;;;;;5012446;28;20819;-43
2021/01/31 05:30:33;;;;;;;11.53;8.47;;;2.50;99.90;;;;;;5011173;28;20707;-44
2021/01/31 05:33:09;;;;;;;11.20;8.93;;;2.40;99.90;;;;;;5012609;28;20478;-47
2021/01/31 05:35:39;;;;;;;11.80;8.77;;;2.40;99.90;;;;;;5012056;28;20470;-45
2021/01/31 05:38:05;;;;;;;12.57;8.80;;;2.40;99.90;;;;;;5011467;28;20427;-46
2021/01/31 05:40:33;;;;;;;11.13;8.77;;;2.30;99.90;;;;;;5032407;28;20512;-42
2021/01/31 05:42:59;;;;;;;11.93;8.40;;;2.20;99.90;;;;;;5073490;28;20413;-46
2021/01/31 05:45:32;;;;;;;10.47;8.27;;;2.00;99.90;;;;;;5074848;28;20409;-45
2021/01/31 05:48:00;;;;;;;11.13;8.13;;;2.00;99.90;;;;;;5073908;28;20424;-46
2021/01/31 05:50:40;;;;;;;11.10;8.83;;;2.00;99.90;;;;;;5062778;28;20478;-45
2021/01/31 05:53:32;;;;;;;11.60;8.20;;;2.00;99.90;;;;;;5062464;28;20421;-46
2021/01/31 05:56:25;;;;;;;9.53;7.90;;;2.10;99.90;;;;;;5053997;28;20457;-47
2021/01/31 05:59:02;;;;;;;11.13;8.37;;;2.10;99.90;;;;;;5068180;28;20511;-46
2021/01/31 06:01:28;;;;;;;13.23;10.73;;;2.20;99.90;;;;;;5058567;28;20567;-46
2021/01/31 06:04:10;;;;;;;13.23;10.07;;;2.30;99.90;;;;;;5053904;28;20449;-45
2021/01/31 06:06:36;;;;;;;11.60;9.07;;;2.30;99.90;;;;;;5073058;28;20219;-47
2021/01/31 06:09:30;;;;;;;14.07;9.57;;;2.30;99.90;;;;;;5066281;28;20528;-44
2021/01/31 06:12:13;;;;;;;11.83;9.33;;;2.30;99.90;;;;;;5054111;28;20521;-44
2021/01/31 06:14:43;;;;;;;11.43;9.43;;;2.20;99.90;;;;;;5055149;28;20481;-46
2021/01/31 06:17:18;;;;;;;10.40;8.17;;;2.20;99.90;;;;;;5054119;28;20463;-45
2021/01/31 06:19:44;;;;;;;10.93;8.53;;;2.20;99.90;;;;;;5054086;28;20428;-43
2021/01/31 06:22:12;;;;;;;11.10;8.50;;;2.20;99.90;;;;;;5054053;28;20405;-42
2021/01/31 06:24:47;;;;;;;11.70;8.63;;;2.20;99.90;;;;;;5053482;28;20546;-48
2021/01/31 06:27:27;;;;;;;10.60;8.20;;;2.10;99.90;;;;;;5055085;28;20413;-46
2021/01/31 06:30:16;;;;;;;11.93;8.73;;;2.10;99.90;;;;;;5054409;28;20462;-46
2021/01/31 06:32:42;;;;;;;11.27;8.87;;;2.00;99.90;;;;;;5053757;28;20847;-47
2021/01/31 06:35:11;;;;;;;11.20;8.37;;;2.10;99.90;;;;;;5054091;28;21023;-46
2021/01/31 06:38:02;;;;;;;10.70;8.30;;;2.20;99.90;;;;;;5054283;28;20175;-48
2021/01/31 06:40:34;;;;;;;11.67;8.43;;;2.20;99.90;;;;;;5053785;28;20543;-50
2021/01/31 06:43:23;;;;;;;11.17;8.10;;;2.30;99.90;;;;;;5053815;28;20398;-46
2021/01/31 06:45:59;;;;;;;11.33;8.70;;;2.20;99.90;;;;;;5053723;28;20424;-43
2021/01/31 06:48:51;;;;;;;10.83;8.03;;;2.20;99.90;;;;;;5056271;28;20774;-44
2021/01/31 06:51:53;;;;;;;11.10;9.10;;;2.30;99.90;;;;;;5058269;28;20412;-48
2021/01/31 06:54:56;;;;;;;12.07;8.57;;;2.40;99.90;;;;;;5057864;28;20503;-45
2021/01/31 06:57:36;;;;;;;12.20;8.93;;;2.30;99.90;;;;;;5057841;28;20517;-42
2021/01/31 07:00:15;;;;;;;11.10;8.17;;;2.20;99.90;;;;;;5057968;28;20425;-45
2021/01/31 07:03:18;;;;;;;10.50;8.30;;;2.20;99.90;;;;;;5058482;28;20408;-46
2021/01/31 07:06:02;;;;;;;10.93;8.30;;;2.10;99.90;;;;;;5057265;28;20542;-45
2021/01/31 07:09:00;;;;;;;10.30;7.83;;;2.20;99.90;;;;;;5057830;28;20836;-43
2021/01/31 07:11:59;;;;;;;10.17;8.20;;;2.20;99.90;;;;;;5056636;28;20494;-48
2021/01/31 07:14:39;;;;;;;12.33;9.47;;;2.30;99.90;;;;;;5056580;28;20509;-47
2021/01/31 07:17:17;;;;;;;10.27;8.13;;;2.30;99.90;;;;;;5057438;28;20492;-47
2021/01/31 07:20:15;;;;;;;10.37;7.73;;;2.30;99.90;;;;;;5057462;28;20425;-50
2021/01/31 07:22:47;;;;;;;11.23;7.97;;;2.30;99.90;;;;;;5041856;28;20460;-43
2021/01/31 07:25:23;;;;;;;9.03;7.37;;;2.20;99.90;;;;;;5059227;28;20544;-45
2021/01/31 07:27:57;;;;;;;11.20;8.30;;;2.10;99.90;;;;;;5056628;28;20491;-45
2021/01/31 07:30:24;;;;;;;9.90;7.67;;;2.00;99.90;;;;;;5075271;28;20500;-47
2021/01/31 07:33:13;;;;;;;10.37;7.87;;;2.10;99.90;;;;;;5074928;28;20421;-49
2021/01/31 07:35:44;;;;;;;12.23;8.40;;;2.20;99.90;;;;;;5057330;28;20445;-46
2021/01/31 07:38:25;;;;;;;9.93;7.70;;;2.30;99.90;;;;;;5056983;28;20455;-46
2021/01/31 07:40:54;;;;;;;11.53;8.40;;;2.40;99.90;;;;;;5056057;28;20398;-45
2021/01/31 07:43:24;;;;;;;10.67;8.40;;;2.50;99.90;;;;;;5058147;28;20448;-44
2021/01/31 07:45:50;;;;;;;9.60;8.07;;;2.50;99.90;;;;;;5077193;28;20186;-46
2021/01/31 07:48:52;;;;;;;11.33;8.53;;;2.40;99.90;;;;;;5073897;28;20452;-46
2021/01/31 07:51:27;;;;;;;10.60;7.33;;;2.40;99.90;;;;;;5075510;28;20273;-44
2021/01/31 07:53:57;;;;;;;9.63;7.53;;;2.40;99.90;;;;;;5075566;28;20961;-44
2021/01/31 07:56:26;;;;;;;10.07;7.47;;;2.40;99.90;;;;;;5078485;28;20456;-46
2021/01/31 07:58:53;;;;;;;10.07;7.70;;;2.40;99.90;;;;;;5069783;28;20930;-44
2021/01/31 08:01:37;;;;;;;10.93;7.63;;;2.40;99.90;;;;;;5056982;28;20171;-51
2021/01/31 08:04:15;;;;;;;10.27;7.53;;;2.40;99.90;;;;;;5056212;28;20252;-48
2021/01/31 08:06:45;;;;;;;9.70;7.13;;;2.50;99.90;;;;;;5056853;28;20170;-48
2021/01/31 08:09:30;;;;;;;9.50;7.23;;;2.50;99.90;;;;;;5054879;28;20210;-47
2021/01/31 08:12:00;;;;;;;10.77;7.70;;;2.50;99.90;;;;;;5057027;28;20253;-44
2021/01/31 08:15:00;;;;;;;10.40;7.50;;;2.50;99.90;;;;;;5059252;28;20171;-46
2021/01/31 08:17:38;;;;;;;9.97;6.97;;;2.60;99.90;;;;;;5055779;28;20202;-44
2021/01/31 08:20:22;;;;;;;9.03;7.53;;;2.70;99.90;;;;;;5056706;28;20248;-46
2021/01/31 08:22:47;;;;;;;10.00;7.47;;;2.70;99.90;;;;;;5056740;28;20171;-44
2021/01/31 08:25:13;;;;;;;9.93;7.30;;;2.80;99.90;;;;;;5055782;28;20208;-46
2021/01/31 08:27:41;;;;;;;9.30;7.20;;;3.00;99.90;;;;;;5057941;28;20175;-47
2021/01/31 08:30:22;;;;;;;9.77;7.73;;;3.10;99.90;;;;;;5060593;28;20215;-47
2021/01/31 08:33:03;;;;;;;9.97;7.60;;;3.30;99.90;;;;;;5056553;28;20183;-44
2021/01/31 08:35:38;;;;;;;10.40;7.70;;;3.30;99.90;;;;;;5057994;28;20199;-49
2021/01/31 08:38:16;;;;;;;9.63;7.53;;;3.40;99.90;;;;;;5055952;28;20208;-47
2021/01/31 08:41:02;;;;;;;9.97;7.30;;;3.40;99.90;;;;;;5056768;28;20258;-45
2021/01/31 08:43:35;;;;;;;10.53;8.37;;;3.40;99.90;;;;;;5035147;28;20187;-45
2021/01/31 08:46:24;;;;;;;9.97;8.10;;;3.60;99.90;;;;;;5056104;28;20236;-48
2021/01/31 08:48:52;;;;;;;10.53;7.53;;;3.70;99.90;;;;;;5054945;28;20215;-47
2021/01/31 08:51:20;;;;;;;8.60;7.23;;;3.60;99.90;;;;;;5059366;28;20274;-48
2021/01/31 08:54:03;;;;;;;9.27;7.07;;;3.70;99.90;;;;;;5054750;28;20289;-45
2021/01/31 08:56:36;;;;;;;7.77;6.07;;;3.80;99.90;;;;;;5057758;28;20202;-47
2021/01/31 08:59:04;;;;;;;8.03;6.47;;;3.80;99.90;;;;;;5055555;28;20277;-45
2021/01/31 09:01:40;;;;;;;8.90;6.30;;;3.80;99.90;;;;;;5058228;28;20197;-44
2021/01/31 09:04:09;;;;;;;8.30;6.17;;;3.80;99.90;;;;;;5055898;28;20179;-51
2021/01/31 09:06:36;;;;;;;8.10;6.47;;;3.80;99.90;;;;;;5055792;28;20643;-46
2021/01/31 09:09:04;;;;;;;7.30;5.90;;;3.80;99.90;;;;;;5057486;28;20298;-44
2021/01/31 09:11:29;;;;;;;8.03;6.00;;;3.90;99.90;;;;;;5055201;28;20293;-48
2021/01/31 09:13:55;;;;;;;8.03;5.87;;;3.90;99.90;;;;;;5055793;28;20214;-50
2021/01/31 09:16:24;;;;;;;8.93;6.10;;;4.00;99.90;;;;;;5057635;28;20659;-48
2021/01/31 09:19:15;;;;;;;7.93;6.03;;;4.00;99.90;;;;;;5056423;28;20281;-46
2021/01/31 09:21:41;;;;;;;7.03;5.50;;;4.00;99.90;;;;;;5056077;28;20661;-47
2021/01/31 09:24:11;;;;;;;7.57;5.60;;;4.10;99.90;;;;;;5054470;28;20187;-49
2021/01/31 09:26:37;;;;;;;7.37;5.90;;;4.00;99.90;;;;;;5057301;28;20173;-50
2021/01/31 09:29:09;;;;;;;8.23;6.33;;;4.10;99.90;;;;;;5057165;28;20214;-46
2021/01/31 09:31:37;;;;;;;8.53;6.20;;;4.10;99.90;;;;;;5055824;28;20240;-48
2021/01/31 09:34:04;;;;;;;7.10;5.50;;;4.10;99.90;;;;;;5062699;28;20248;-48
2021/01/31 09:36:33;;;;;;;6.63;5.23;;;4.10;99.90;;;;;;5066557;28;20252;-48
2021/01/31 09:39:03;;;;;;;7.73;6.27;;;4.10;99.90;;;;;;5063446;28;20233;-44
2021/01/31 09:41:29;;;;;;;7.17;5.53;;;4.20;99.90;;;;;;5068805;28;20724;-48
2021/01/31 09:43:58;;;;;;;8.47;5.90;;;4.40;99.90;;;;;;5074577;28;20222;-47
2021/01/31 09:46:25;;;;;;;8.23;6.13;;;4.50;99.90;;;;;;5081781;28;20182;-52
2021/01/31 09:49:21;;;;;;;8.17;6.30;;;4.60;99.90;;;;;;5077628;28;20691;-46
2021/01/31 09:51:47;;;;;;;7.50;5.67;;;4.80;99.90;;;;;;5059564;28;20203;-49
2021/01/31 09:54:18;;;;;;;7.47;5.73;;;4.70;99.90;;;;;;5089011;28;20700;-45
2021/01/31 09:56:54;;;;;;;7.40;5.90;;;4.80;99.90;;;;;;5076177;28;20174;-45
2021/01/31 09:59:28;;;;;;;7.80;5.77;;;5.10;99.90;;;;;;5057546;28;20210;-48
2021/01/31 10:02:01;;;;;;;8.07;6.23;;;5.30;99.90;;;;;;5072886;28;20641;-44
2021/01/31 10:04:27;;;;;;;8.10;5.57;;;5.40;99.90;;;;;;5070152;28;20194;-49
2021/01/31 10:07:04;;;;;;;7.07;5.40;;;5.40;99.90;;;;;;5087019;28;20638;-43
2021/01/31 10:09:33;;;;;;;5.97;4.63;;;5.30;99.90;;;;;;5057109;28;20236;-46
2021/01/31 10:12:14;;;;;;;7.57;5.53;;;5.20;99.90;;;;;;5076389;28;20213;-45
2021/01/31 10:14:47;;;;;;;6.63;5.13;;;5.20;99.90;;;;;;5066254;28;20748;-48
2021/01/31 10:17:19;;;;;;;9.53;7.23;;;5.40;99.90;;;;;;5091448;28;20626;-46
2021/01/31 10:19:46;;;;;;;6.57;4.80;;;5.50;99.90;;;;;;5055247;28;20206;-46
2021/01/31 10:22:28;;;;;;;7.60;5.63;;;6.60;99.90;;;;;;5078234;28;20181;-43
2021/01/31 10:24:54;;;;;;;6.20;5.10;;;5.80;99.90;;;;;;5093937;28;20221;-47
2021/01/31 10:27:27;;;;;;;5.53;4.43;;;5.90;99.90;;;;;;5075357;28;20256;-43
2021/01/31 10:29:54;;;;;;;6.70;5.27;;;7.10;99.90;;;;;;5058041;28;20210;-48
2021/01/31 10:32:34;;;;;;;6.37;4.53;;;6.50;99.90;;;;;;5070949;28;20224;-48
2021/01/31 10:35:02;;;;;;;6.10;4.77;;;6.60;99.90;;;;;;5075738;28;20302;-51
2021/01/31 10:37:46;;;;;;;7.50;5.53;;;6.70;99.90;;;;;;5087059;28;20197;-50
2021/01/31 10:40:12;;;;;;;7.77;5.83;;;6.80;99.90;;;;;;5065344;28;20222;-44
2021/01/31 10:42:38;;;;;;;5.70;4.83;;;6.80;99.40;;;;;;5074727;28;20177;-47
2021/01/31 10:45:14;;;;;;;5.27;4.57;;;6.60;99.60;;;;;;5077108;28;20193;-44
2021/01/31 10:47:42;;;;;;;6.57;5.00;;;6.50;99.50;;;;;;5081873;28;20252;-43
2021/01/31 10:50:09;;;;;;;5.73;4.70;;;6.50;99.90;;;;;;5058059;28;20682;-46
2021/01/31 10:52:36;;;;;;;5.83;4.70;;;6.50;99.50;;;;;;5070218;28;20273;-44
2021/01/31 10:55:02;;;;;;;5.70;4.77;;;6.60;99.90;;;;;;5083487;28;20210;-45
2021/01/31 10:57:28;;;;;;;5.67;4.63;;;6.60;99.80;;;;;;5078101;28;20530;-47
2021/01/31 10:59:55;;;;;;;5.90;4.67;;;6.50;99.50;;;;;;5066125;28;20218;-44
2021/01/31 11:02:20;;;;;;;6.50;4.90;;;6.50;99.50;;;;;;5057409;28;20248;-43
2021/01/31 11:04:46;;;;;;;6.57;4.80;;;6.50;99.50;;;;;;5056891;28;20433;-47
2021/01/31 11:07:11;;;;;;;5.37;4.57;;;6.60;99.90;;;;;;5057178;28;20229;-47
2021/01/31 11:09:37;;;;;;;5.47;4.50;;;6.60;99.10;;;;;;5056037;28;20557;-45
2021/01/31 11:12:03;;;;;;;7.10;4.93;;;6.50;98.60;;;;;;5057189;28;20266;-48
2021/01/31 11:14:29;;;;;;;5.83;4.73;;;6.60;99.10;;;;;;5057053;28;20201;-47
2021/01/31 11:16:54;;;;;;;6.27;4.67;;;6.70;98.90;;;;;;5056826;28;20175;-45
2021/01/31 11:19:20;;;;;;;5.33;4.67;;;6.70;99.20;;;;;;5057207;28;20226;-47
2021/01/31 11:21:46;;;;;;;6.97;5.17;;;6.90;98.70;;;;;;5056501;28;20206;-47
2021/01/31 11:24:11;;;;;;;11.93;7.50;;;6.70;98.00;;;;;;5057007;28;20221;-46
2021/01/31 11:26:37;;;;;;;6.23;4.63;;;6.60;98.50;;;;;;5061767;28;20535;-46
2021/01/31 11:29:02;;;;;;;5.20;4.50;;;6.60;98.50;;;;;;5064349;28;20550;-47
2021/01/31 11:31:28;;;;;;;5.93;4.40;;;6.60;98.80;;;;;;5061778;28;20802;-46
2021/01/31 11:33:55;;;;;;;4.77;4.13;;;6.70;99.30;;;;;;5063218;28;20181;-44
2021/01/31 11:36:21;;;;;;;5.53;4.30;;;6.90;99.20;;;;;;5065152;28;20194;-48
2021/01/31 11:38:47;;;;;;;5.43;4.43;;;7.00;98.80;;;;;;5063610;28;20207;-46
2021/01/31 11:41:13;;;;;;;5.63;4.40;;;7.00;97.90;;;;;;5064276;28;20622;-46
2021/01/31 11:43:39;;;;;;;6.17;4.67;;;7.10;98.40;;;;;;5064935;28;20187;-46
2021/01/31 11:46:04;;;;;;;6.27;4.50;;;7.30;98.50;;;;;;5063997;28;20186;-49
2021/01/31 11:48:30;;;;;;;5.87;4.30;;;7.40;97.50;;;;;;5065080;28;20557;-47
2021/01/31 11:50:56;;;;;;;5.60;4.33;;;7.30;97.00;;;;;;5063494;28;20193;-48
2021/01/31 11:53:21;;;;;;;6.33;4.37;;;7.30;97.50;;;;;;5055942;28;20574;-47
2021/01/31 11:55:47;;;;;;;4.70;4.00;;;7.30;97.70;;;;;;5055713;28;20218;-45
2021/01/31 11:58:13;;;;;;;5.40;4.17;;;7.30;97.60;;;;;;5055444;28;20182;-47
2021/01/31 12:00:39;;;;;;;6.17;4.23;;;7.20;97.20;;;;;;5055978;28;20228;-51
2021/01/31 12:03:05;;;;;;;6.13;4.80;;;7.20;97.50;;;;;;5056206;28;20262;-45
2021/01/31 12:05:31;;;;;;;5.57;4.63;;;7.10;97.60;;;;;;5055532;28;20182;-43
2021/01/31 12:07:57;;;;;;;10.50;7.40;;;7.00;96.70;;;;;;5056423;28;20174;-46
2021/01/31 12:10:23;;;;;;;5.83;4.27;;;6.90;96.50;;;;;;5056117;28;20199;-45
2021/01/31 12:12:48;;;;;;;6.00;4.60;;;6.70;97.30;;;;;;5056475;28;20496;-48
2021/01/31 12:15:15;;;;;;;4.93;4.00;;;6.90;97.30;;;;;;5056143;28;20234;-46
2021/01/31 12:17:42;;;;;;;5.57;4.37;;;7.10;97.20;;;;;;5055069;28;20258;-46
2021/01/31 12:20:09;;;;;;;5.47;4.17;;;7.30;96.70;;;;;;5055931;28;20191;-46
2021/01/31 12:22:36;;;;;;;6.00;4.50;;;7.30;96.00;;;;;;5056555;28;20179;-47
2021/01/31 12:25:03;;;;;;;5.57;4.20;;;7.40;96.40;;;;;;5073309;28;20190;-44
2021/01/31 12:27:29;;;;;;;5.93;4.47;;;7.50;96.30;;;;;;5073534;28;20273;-43
2021/01/31 12:29:55;;;;;;;4.57;4.00;;;7.50;96.10;;;;;;5073739;28;20285;-45
2021/01/31 12:32:22;;;;;;;5.00;4.17;;;7.70;96.30;;;;;;5070058;28;20261;-45
2021/01/31 12:34:47;;;;;;;5.40;4.60;;;7.90;95.70;;;;;;5074489;28;20266;-43
2021/01/31 12:37:14;;;;;;;5.87;4.60;;;7.90;96.20;;;;;;5073992;28;20281;-50
2021/01/31 12:39:40;;;;;;;6.40;4.70;;;8.20;96.90;;;;;;5075924;28;20206;-44
2021/01/31 12:42:06;;;;;;;6.03;4.53;;;8.40;95.80;;;;;;5073976;28;20190;-47
2021/01/31 12:44:31;;;;;;;5.27;4.47;;;8.50;96.50;;;;;;5075471;28;20175;-44
2021/01/31 12:46:57;;;;;;;5.13;4.10;;;8.70;95.20;;;;;;5074830;28;20193;-48
2021/01/31 12:49:23;;;;;;;4.63;4.10;;;8.70;95.50;;;;;;5068575;28;20226;-44
2021/01/31 12:51:48;;;;;;;6.00;4.00;;;8.70;94.20;;;;;;5060393;28;20187;-50
2021/01/31 12:54:14;;;;;;;6.27;4.93;;;8.70;94.70;;;;;;5064509;28;20553;-45
2021/01/31 12:56:39;;;;;;;6.00;4.77;;;8.70;93.50;;;;;;5061777;28;20230;-48
2021/01/31 12:59:05;;;;;;;5.53;3.97;;;8.70;94.20;;;;;;5066741;28;20222;-47
2021/01/31 13:01:30;;;;;;;22.87;11.47;;;8.60;93.10;;;;;;5055643;28;20205;-46
2021/01/31 13:03:56;;;;;;;22.57;11.37;;;8.30;92.20;;;;;;5060570;28;20175;-45
2021/01/31 13:06:22;;;;;;;22.53;11.03;;;8.00;92.30;;;;;;5074305;28;20192;-46
2021/01/31 13:08:47;;;;;;;24.97;13.37;;;7.90;92.90;;;;;;5061626;28;20210;-51
2021/01/31 13:11:13;;;;;;;22.60;12.27;;;7.90;93.00;;;;;;5064316;28;20256;-42
2021/01/31 13:13:38;;;;;;;36.70;19.17;;;7.80;92.20;;;;;;5059222;28;20213;-48
2021/01/31 13:16:04;;;;;;;6.17;4.30;;;7.70;93.00;;;;;;5073545;28;20198;-46
2021/01/31 13:18:29;;;;;;;4.53;3.60;;;7.80;93.10;;;;;;5061667;28;20685;-45
2021/01/31 13:20:55;;;;;;;4.30;3.67;;;8.00;92.80;;;;;;5071418;28;20175;-45